Time;durP1;ratioP1;P1;durP2;ratioP2;P2;SDS_P1;SDS_P2;PMS_P1;PMS_P2;Temp;Humidity;BMP_temperature;BMP_pressure;BME280_temperature;BME280_humidity;BME280_pressure;Samples;Min_cycle;Max_cycle;Signal;HPM_P1;HPM_P2
2022/08/28 00:00:27;;;;;;;14.43;3.92;;;15.00;99.90;;;;;;5033016;28;20056;-67
2022/08/28 00:02:53;;;;;;;10.32;4.07;;;15.00;99.90;;;;;;5033080;28;20052;-67
2022/08/28 00:05:23;;;;;;;12.73;3.90;;;14.90;99.90;;;;;;5032905;28;20038;-67
2022/08/28 00:07:49;;;;;;;11.90;3.88;;;15.00;99.90;;;;;;5031466;28;20045;-67
2022/08/28 00:10:16;;;;;;;17.63;3.85;;;15.00;99.90;;;;;;5031454;28;20461;-67
2022/08/28 00:12:45;;;;;;;11.73;3.70;;;14.90;99.90;;;;;;5032594;28;20057;-67
2022/08/28 00:15:14;;;;;;;10.57;4.00;;;15.00;99.90;;;;;;5032513;28;20056;-67
2022/08/28 00:17:41;;;;;;;15.45;4.32;;;14.90;99.90;;;;;;5032796;28;20088;-67
2022/08/28 00:20:08;;;;;;;9.82;3.83;;;15.00;99.90;;;;;;5032649;28;20410;-67
2022/08/28 00:22:35;;;;;;;11.82;4.03;;;15.00;99.90;;;;;;5031143;28;20127;-67
2022/08/28 00:25:00;;;;;;;8.82;4.22;;;15.00;99.90;;;;;;5030779;28;20490;-67
2022/08/28 00:30:10;;;;;;;14.38;4.03;;;14.90;99.90;;;;;;5032632;28;20055;-67
2022/08/28 00:32:36;;;;;;;15.52;4.45;;;14.90;99.90;;;;;;5032412;28;20045;-67
2022/08/28 00:35:01;;;;;;;12.07;4.10;;;14.90;99.90;;;;;;5032033;28;20041;-67
2022/08/28 00:37:28;;;;;;;11.30;4.15;;;14.90;99.90;;;;;;5032265;28;20037;-67
2022/08/28 00:39:53;;;;;;;9.30;3.90;;;14.90;99.90;;;;;;5032149;28;20442;-67
2022/08/28 00:42:19;;;;;;;8.82;3.80;;;14.90;99.90;;;;;;5030837;28;20046;-67
2022/08/28 00:44:45;;;;;;;11.77;4.38;;;14.90;99.90;;;;;;5031834;28;20045;-67
2022/08/28 00:47:11;;;;;;;9.85;4.20;;;14.80;99.90;;;;;;5014326;28;20498;-67
2022/08/28 00:49:47;;;;;;;13.90;3.78;;;14.90;99.90;;;;;;5032052;28;20509;-67
2022/08/28 00:52:14;;;;;;;8.60;3.60;;;14.80;99.90;;;;;;5031946;28;20042;-67
2022/08/28 00:54:54;;;;;;;7.72;3.80;;;14.70;99.90;;;;;;5030368;28;20053;-67
2022/08/28 00:57:24;;;;;;;10.23;3.90;;;14.70;99.90;;;;;;5032097;28;20049;-67
2022/08/28 00:59:50;;;;;;;9.70;3.70;;;14.80;99.90;;;;;;5031833;28;20045;-67
2022/08/28 01:02:16;;;;;;;14.55;3.40;;;14.80;99.90;;;;;;5031780;28;20052;-67
2022/08/28 01:04:42;;;;;;;11.20;3.30;;;14.80;99.90;;;;;;5031425;28;20045;-67
2022/08/28 01:07:11;;;;;;;10.00;4.15;;;14.70;99.90;;;;;;5031671;28;20081;-67
2022/08/28 01:09:42;;;;;;;14.05;3.83;;;14.70;99.90;;;;;;5031675;28;20100;-67
2022/08/28 01:12:13;;;;;;;12.35;3.63;;;14.70;99.90;;;;;;5030239;28;20042;-67
2022/08/28 01:14:40;;;;;;;7.65;3.53;;;14.70;99.90;;;;;;5031332;28;20045;-67
2022/08/28 01:17:08;;;;;;;11.25;4.13;;;14.80;99.90;;;;;;5031420;28;20030;-67
2022/08/28 01:19:42;;;;;;;14.57;4.13;;;14.70;99.90;;;;;;5031482;28;20132;-67
2022/08/28 01:22:32;;;;;;;15.23;3.85;;;14.70;99.90;;;;;;5031521;28;20048;-67
2022/08/28 01:25:02;;;;;;;13.50;4.07;;;14.70;99.90;;;;;;5029882;28;20532;-67
2022/08/28 01:27:28;;;;;;;11.85;3.65;;;14.60;99.90;;;;;;5031324;28;20136;-67
2022/08/28 01:29:54;;;;;;;9.90;3.80;;;14.60;99.90;;;;;;5031294;28;20075;-67
2022/08/28 01:32:39;;;;;;;8.52;3.55;;;14.60;99.90;;;;;;5031451;28;20045;-67
2022/08/28 01:35:08;;;;;;;13.88;3.80;;;14.60;99.90;;;;;;5031067;28;20069;-67
2022/08/28 01:37:35;;;;;;;13.77;4.22;;;14.60;99.90;;;;;;5030750;28;20071;-67
2022/08/28 01:40:01;;;;;;;10.75;3.65;;;14.60;99.90;;;;;;5030071;28;20099;-67
2022/08/28 01:42:27;;;;;;;9.00;3.45;;;14.60;99.90;;;;;;5031463;28;20137;-67
2022/08/28 01:44:53;;;;;;;9.68;3.47;;;14.50;99.90;;;;;;5029887;28;20132;-67
2022/08/28 01:47:20;;;;;;;11.05;3.90;;;14.50;99.90;;;;;;5031189;28;20530;-67
2022/08/28 01:49:45;;;;;;;8.73;3.83;;;14.50;99.90;;;;;;5031159;28;20042;-67
2022/08/28 01:52:11;;;;;;;11.68;4.32;;;14.50;99.90;;;;;;5029872;28;20111;-67
2022/08/28 01:54:37;;;;;;;9.18;3.95;;;14.50;99.90;;;;;;5030499;28;20043;-67
2022/08/28 01:57:02;;;;;;;6.28;3.70;;;14.50;99.90;;;;;;5031219;28;20037;-67
2022/08/28 01:59:28;;;;;;;12.32;3.60;;;14.50;99.90;;;;;;5031048;28;20037;-67
2022/08/28 02:01:54;;;;;;;9.43;4.18;;;14.50;99.90;;;;;;5030978;28;20546;-67
2022/08/28 02:04:20;;;;;;;7.75;3.50;;;14.40;99.90;;;;;;5030638;28;20125;-67
2022/08/28 02:06:45;;;;;;;7.78;3.97;;;14.40;99.90;;;;;;5030996;28;20119;-67
2022/08/28 02:09:11;;;;;;;12.35;3.90;;;14.40;99.90;;;;;;5030610;28;20041;-67
2022/08/28 02:11:41;;;;;;;11.05;3.75;;;14.40;99.90;;;;;;5030929;28;20037;-67
2022/08/28 02:14:07;;;;;;;11.45;3.83;;;14.40;99.90;;;;;;5030716;28;20046;-67
2022/08/28 02:16:33;;;;;;;10.80;3.63;;;14.40;99.90;;;;;;5030792;28;20049;-67
2022/08/28 02:18:59;;;;;;;7.72;3.67;;;14.40;99.90;;;;;;5030835;28;20034;-67
2022/08/28 02:21:24;;;;;;;10.43;4.07;;;14.40;99.90;;;;;;5030676;28;20041;-67
2022/08/28 02:23:51;;;;;;;9.95;3.30;;;14.40;99.90;;;;;;5029030;28;20041;-67
2022/08/28 02:26:17;;;;;;;8.98;3.75;;;14.30;99.90;;;;;;5029375;28;20503;-67
2022/08/28 02:28:43;;;;;;;12.57;3.95;;;14.40;99.90;;;;;;5029417;28;20045;-67
2022/08/28 02:31:09;;;;;;;12.30;3.70;;;14.40;99.90;;;;;;5030573;28;20050;-67
2022/08/28 02:33:39;;;;;;;8.73;3.95;;;14.40;99.90;;;;;;5030683;28;20120;-67
2022/08/28 02:36:08;;;;;;;6.97;3.35;;;14.40;99.90;;;;;;5029504;28;20450;-67
2022/08/28 02:38:34;;;;;;;9.10;3.65;;;14.20;99.90;;;;;;5029185;28;20127;-67
2022/08/28 02:40:59;;;;;;;9.68;3.72;;;14.20;99.90;;;;;;5030531;28;20046;-67
2022/08/28 02:43:25;;;;;;;10.52;3.50;;;14.30;99.90;;;;;;5030583;28;20407;-67
2022/08/28 02:45:50;;;;;;;9.82;3.53;;;14.30;99.90;;;;;;5030315;28;20411;-67
2022/08/28 02:48:17;;;;;;;7.32;3.80;;;14.20;99.90;;;;;;5030826;28;20065;-67
2022/08/28 02:50:44;;;;;;;9.35;3.60;;;14.20;99.90;;;;;;5034368;28;20037;-67
2022/08/28 02:53:10;;;;;;;10.18;3.92;;;14.20;99.90;;;;;;5034074;28;20087;-67
2022/08/28 02:55:36;;;;;;;7.30;4.00;;;14.20;99.90;;;;;;5034056;28;20037;-67
2022/08/28 02:58:02;;;;;;;11.43;4.00;;;14.10;99.90;;;;;;5034322;28;20095;-67
2022/08/28 03:00:27;;;;;;;11.60;4.03;;;14.10;99.90;;;;;;5034199;28;20041;-67
2022/08/28 03:02:53;;;;;;;11.98;4.32;;;14.10;99.90;;;;;;5032716;28;20095;-67
2022/08/28 03:05:21;;;;;;;16.25;4.00;;;14.10;99.90;;;;;;5032508;28;20049;-67
2022/08/28 03:07:48;;;;;;;15.98;4.20;;;14.10;99.90;;;;;;5033947;28;20049;-67
2022/08/28 03:10:14;;;;;;;9.60;3.53;;;14.10;99.90;;;;;;5032555;28;20060;-67
2022/08/28 03:12:40;;;;;;;7.93;3.72;;;14.10;99.90;;;;;;5034006;28;20040;-67
2022/08/28 03:15:07;;;;;;;11.15;3.63;;;14.10;99.90;;;;;;5033574;28;20043;-67
2022/08/28 03:17:34;;;;;;;11.63;3.97;;;14.10;99.90;;;;;;5033932;28;20387;-67
2022/08/28 03:19:59;;;;;;;11.18;3.85;;;14.10;99.90;;;;;;5033755;28;20042;-67
2022/08/28 03:25:11;;;;;;;13.60;4.35;;;14.10;99.90;;;;;;5033570;28;20644;-67
2022/08/28 03:27:37;;;;;;;9.05;3.80;;;14.10;99.90;;;;;;5033762;28;20427;-67
2022/08/28 03:30:06;;;;;;;15.48;4.35;;;14.00;99.90;;;;;;5032290;28;20125;-67
2022/08/28 03:32:32;;;;;;;11.32;4.05;;;14.10;99.90;;;;;;5033416;28;20049;-67
2022/08/28 03:34:58;;;;;;;12.55;3.85;;;14.00;99.90;;;;;;5033426;28;20094;-67
2022/08/28 03:37:24;;;;;;;10.88;4.03;;;14.00;99.90;;;;;;5033491;28;20033;-67
2022/08/28 03:39:50;;;;;;;8.50;4.35;;;14.10;99.90;;;;;;5033588;28;20072;-67
2022/08/28 03:42:16;;;;;;;11.32;4.22;;;14.10;99.90;;;;;;5032253;28;20048;-67
2022/08/28 03:44:41;;;;;;;8.95;3.90;;;14.10;99.90;;;;;;5033164;28;20522;-67
2022/08/28 03:47:07;;;;;;;8.98;4.43;;;14.00;99.90;;;;;;5033264;28;20042;-67
2022/08/28 03:49:33;;;;;;;14.40;4.10;;;14.00;99.90;;;;;;5033495;28;20042;-67
2022/08/28 03:51:58;;;;;;;9.68;3.65;;;13.90;99.90;;;;;;5033253;28;20048;-67
2022/08/28 03:54:24;;;;;;;10.73;4.13;;;14.00;99.90;;;;;;5032961;28;20042;-67
2022/08/28 03:56:50;;;;;;;12.20;4.03;;;14.00;99.90;;;;;;5033252;28;20122;-67
2022/08/28 03:59:18;;;;;;;8.10;3.85;;;13.90;99.90;;;;;;5032764;28;20037;-67
2022/08/28 04:01:44;;;;;;;13.35;4.45;;;13.90;99.90;;;;;;5032830;28;20041;-67
2022/08/28 04:04:09;;;;;;;11.23;3.85;;;13.90;99.90;;;;;;5032868;28;20440;-67
2022/08/28 04:06:35;;;;;;;11.60;4.60;;;13.90;99.90;;;;;;5033040;28;20554;-67
2022/08/28 04:09:01;;;;;;;11.07;4.30;;;13.90;99.90;;;;;;5032853;28;20060;-67
2022/08/28 04:11:27;;;;;;;7.88;4.22;;;13.90;99.90;;;;;;5032970;28;20042;-67
2022/08/28 04:13:52;;;;;;;11.63;3.90;;;13.90;99.90;;;;;;5031414;28;20281;-67
2022/08/28 04:16:18;;;;;;;11.25;4.10;;;13.90;99.90;;;;;;5032663;28;20040;-67
2022/08/28 04:18:46;;;;;;;14.75;4.45;;;13.90;99.90;;;;;;5032919;28;20033;-67
2022/08/28 04:21:16;;;;;;;11.75;4.10;;;13.90;99.90;;;;;;5032748;28;20045;-67
2022/08/28 04:23:44;;;;;;;9.57;4.10;;;13.90;99.90;;;;;;5032375;28;20525;-67
2022/08/28 04:26:12;;;;;;;11.60;3.90;;;13.90;99.90;;;;;;5031388;28;20087;-67
2022/08/28 04:28:38;;;;;;;12.43;3.97;;;13.80;99.90;;;;;;5032480;28;20042;-67
2022/08/28 04:31:04;;;;;;;13.70;3.83;;;13.80;99.90;;;;;;5032064;28;20394;-67
2022/08/28 04:33:31;;;;;;;7.93;3.92;;;13.90;99.90;;;;;;5029329;28;20094;-67
2022/08/28 04:36:02;;;;;;;11.63;3.78;;;13.80;99.90;;;;;;5029472;28;20172;-67
2022/08/28 04:38:28;;;;;;;13.45;3.85;;;13.90;99.90;;;;;;5029600;28;20046;-67
2022/08/28 04:40:53;;;;;;;13.02;3.88;;;13.90;99.90;;;;;;5030673;28;20045;-67
2022/08/28 04:43:20;;;;;;;11.40;3.40;;;13.90;99.90;;;;;;5031601;28;20037;-67
2022/08/28 04:45:45;;;;;;;7.10;3.78;;;13.90;99.90;;;;;;5031183;28;20120;-67
2022/08/28 04:48:12;;;;;;;6.53;3.22;;;13.80;99.90;;;;;;5030943;28;20124;-67
2022/08/28 04:50:47;;;;;;;9.07;3.90;;;13.90;99.90;;;;;;5032157;28;20040;-67
2022/08/28 04:53:14;;;;;;;9.20;4.25;;;13.90;99.90;;;;;;5030659;28;20056;-67
2022/08/28 04:55:41;;;;;;;11.38;3.55;;;13.90;99.90;;;;;;5031624;28;20033;-67
2022/08/28 04:58:08;;;;;;;7.72;3.53;;;13.90;99.90;;;;;;5030701;28;20044;-67
2022/08/28 05:00:36;;;;;;;8.85;3.63;;;14.00;99.90;;;;;;5032122;28;20041;-67
2022/08/28 05:03:01;;;;;;;14.00;3.55;;;13.90;99.90;;;;;;5030519;28;20166;-67
2022/08/28 05:05:27;;;;;;;11.20;3.95;;;13.90;99.90;;;;;;5031614;28;20713;-67
2022/08/28 05:07:52;;;;;;;10.23;4.20;;;14.00;99.90;;;;;;5031748;28;20143;-67
2022/08/28 05:10:18;;;;;;;10.70;3.85;;;13.90;99.90;;;;;;5031644;28;20511;-67
2022/08/28 05:12:43;;;;;;;7.68;3.15;;;14.00;99.90;;;;;;5031041;28;20041;-67
2022/08/28 05:15:09;;;;;;;10.65;3.10;;;14.00;99.90;;;;;;5031442;28;20041;-67
2022/08/28 05:17:35;;;;;;;8.13;3.35;;;14.00;99.90;;;;;;5031635;28;20049;-67
2022/08/28 05:20:01;;;;;;;8.93;3.75;;;14.10;99.90;;;;;;5031612;28;20056;-67
2022/08/28 05:22:27;;;;;;;11.00;3.70;;;14.20;99.90;;;;;;5031487;28;20049;-67
2022/08/28 05:24:53;;;;;;;10.95;3.53;;;14.20;99.90;;;;;;5031257;28;20045;-67
2022/08/28 05:27:19;;;;;;;11.70;3.80;;;14.30;99.90;;;;;;5030171;28;20136;-67
2022/08/28 05:29:45;;;;;;;10.75;3.45;;;14.40;99.90;;;;;;5031677;28;20041;-67
2022/08/28 05:32:11;;;;;;;11.85;3.70;;;14.40;99.90;;;;;;5031411;28;20045;-67
2022/08/28 05:34:36;;;;;;;9.70;3.47;;;14.30;99.90;;;;;;5031002;28;20115;-67
2022/08/28 05:37:02;;;;;;;8.10;2.88;;;14.30;99.90;;;;;;5031236;28;20079;-67
2022/08/28 05:39:28;;;;;;;8.15;2.85;;;14.40;99.90;;;;;;5031298;28;20033;-67
2022/08/28 05:41:53;;;;;;;8.73;3.70;;;14.40;99.90;;;;;;5031138;28;20037;-67
2022/08/28 05:44:19;;;;;;;9.70;3.60;;;14.30;99.90;;;;;;5031169;28;20171;-67
2022/08/28 05:46:47;;;;;;;13.02;3.25;;;14.40;99.90;;;;;;5031382;28;20041;-67
2022/08/28 05:49:13;;;;;;;8.10;3.33;;;14.30;99.90;;;;;;5031194;28;20037;-67
2022/08/28 05:51:40;;;;;;;11.55;3.25;;;14.50;99.90;;;;;;5031119;28;20046;-67
2022/08/28 05:54:07;;;;;;;10.45;3.47;;;14.70;99.90;;;;;;5030629;28;20041;-67
2022/08/28 05:56:35;;;;;;;11.15;3.35;;;14.80;99.90;;;;;;5029986;28;20380;-67
2022/08/28 05:59:02;;;;;;;11.52;3.60;;;14.90;99.90;;;;;;5029977;28;20103;-67
2022/08/28 06:01:30;;;;;;;10.30;3.20;;;15.00;99.90;;;;;;5029654;28;20069;-67
2022/08/28 06:04:00;;;;;;;7.20;3.10;;;15.10;99.90;;;;;;5030628;28;20045;-67
2022/08/28 06:06:28;;;;;;;9.82;2.80;;;15.20;99.90;;;;;;5031008;28;20045;-67
2022/08/28 06:09:06;;;;;;;11.45;2.63;;;15.20;99.90;;;;;;5029448;28;20091;-67
2022/08/28 06:11:32;;;;;;;12.55;3.03;;;15.30;99.90;;;;;;5031029;28;20041;-67
2022/08/28 06:14:00;;;;;;;8.38;2.47;;;15.30;99.90;;;;;;5030645;28;20457;-67
2022/08/28 06:16:26;;;;;;;9.45;2.65;;;15.40;99.90;;;;;;5030911;28;20038;-67
2022/08/28 06:18:52;;;;;;;12.20;2.72;;;15.50;99.90;;;;;;5030736;28;20368;-67
2022/08/28 06:21:17;;;;;;;8.38;2.85;;;15.50;99.90;;;;;;5030618;28;20037;-67
2022/08/28 06:23:43;;;;;;;10.07;2.88;;;15.60;99.90;;;;;;5033556;28;20117;-67
2022/08/28 06:26:09;;;;;;;13.55;2.55;;;15.60;99.90;;;;;;5017192;28;20033;-67
2022/08/28 06:28:35;;;;;;;8.50;2.60;;;15.60;99.90;;;;;;5034967;28;20483;-67
2022/08/28 06:31:03;;;;;;;10.20;2.90;;;15.60;99.90;;;;;;5034788;28;20098;-67
2022/08/28 06:33:29;;;;;;;6.65;2.78;;;15.70;99.90;;;;;;5034690;28;20041;-67
2022/08/28 06:35:55;;;;;;;8.07;2.30;;;15.60;99.90;;;;;;5032918;28;20033;-67
2022/08/28 06:38:25;;;;;;;7.32;2.45;;;15.60;99.90;;;;;;5034763;28;20037;-67
2022/08/28 06:40:54;;;;;;;12.43;2.47;;;15.70;99.90;;;;;;5033567;28;20045;-67
2022/08/28 06:43:24;;;;;;;7.68;2.63;;;15.60;99.90;;;;;;5034641;28;20033;-67
2022/08/28 06:45:54;;;;;;;11.57;2.65;;;15.80;99.90;;;;;;5034307;28;20041;-67
2022/08/28 06:48:23;;;;;;;6.55;2.70;;;15.80;99.90;;;;;;5034379;28;20645;-67
2022/08/28 06:50:53;;;;;;;10.45;2.30;;;15.80;99.90;;;;;;5034582;28;20048;-66
2022/08/28 06:53:23;;;;;;;8.85;2.20;;;15.90;99.90;;;;;;5025403;28;20091;-66
2022/08/28 06:56:06;;;;;;;11.80;2.90;;;16.00;99.90;;;;;;5025966;28;20037;-66
2022/08/28 06:58:32;;;;;;;8.52;2.53;;;16.00;99.90;;;;;;5022960;28;20037;-67
2022/08/28 07:01:09;;;;;;;8.70;2.70;;;15.90;99.90;;;;;;5016390;28;20049;-66
2022/08/28 07:03:36;;;;;;;8.20;2.10;;;16.00;99.90;;;;;;5013006;28;20034;-65
2022/08/28 07:06:03;;;;;;;11.80;2.72;;;15.90;99.90;;;;;;5014177;28;20044;-66
2022/08/28 07:08:31;;;;;;;7.78;2.25;;;15.90;99.90;;;;;;5014155;28;20634;-65
2022/08/28 07:10:57;;;;;;;9.75;2.42;;;16.10;99.90;;;;;;5014269;28;20702;-66
2022/08/28 07:13:23;;;;;;;9.18;2.35;;;16.00;99.90;;;;;;5014126;28;20083;-66
2022/08/28 07:15:50;;;;;;;7.00;2.20;;;16.10;99.90;;;;;;5013960;28;20038;-65
2022/08/28 07:18:16;;;;;;;7.13;2.10;;;16.10;99.90;;;;;;5013068;28;20041;-66
2022/08/28 07:20:42;;;;;;;11.07;2.22;;;16.10;99.90;;;;;;5021995;28;20049;-66
2022/08/28 07:23:08;;;;;;;8.18;2.08;;;16.10;99.90;;;;;;5024458;28;20052;-66
2022/08/28 07:25:37;;;;;;;8.68;2.13;;;16.20;99.90;;;;;;5022515;28;20503;-66
2022/08/28 07:28:03;;;;;;;6.57;2.17;;;16.40;99.90;;;;;;5021515;28;20049;-66
2022/08/28 07:30:28;;;;;;;9.40;2.03;;;16.40;99.90;;;;;;5024397;28;20038;-66
2022/08/28 07:32:54;;;;;;;10.55;2.03;;;16.40;99.90;;;;;;5021334;28;20487;-66
2022/08/28 07:35:19;;;;;;;9.18;1.88;;;16.50;99.90;;;;;;5021899;28;20045;-66
2022/08/28 07:37:45;;;;;;;5.78;1.83;;;16.60;99.90;;;;;;5024275;28;20081;-66
2022/08/28 07:40:11;;;;;;;12.77;2.40;;;16.70;99.90;;;;;;5024308;28;20376;-66
2022/08/28 07:45:21;;;;;;;8.10;1.95;;;16.60;99.90;;;;;;5023900;28;20045;-66
2022/08/28 07:47:47;;;;;;;11.70;2.25;;;16.70;99.90;;;;;;5023933;28;20045;-66
2022/08/28 07:50:14;;;;;;;11.63;2.17;;;16.70;99.90;;;;;;5004460;28;20065;-66
2022/08/28 07:52:39;;;;;;;8.13;1.80;;;16.70;99.90;;;;;;5021557;28;20048;-66
2022/08/28 07:55:07;;;;;;;8.55;2.25;;;16.70;99.90;;;;;;5023478;28;20045;-66
2022/08/28 07:57:33;;;;;;;9.23;1.70;;;16.80;99.90;;;;;;5024077;28;20063;-66
2022/08/28 07:59:59;;;;;;;11.10;2.35;;;16.90;99.90;;;;;;5023375;28;20034;-66
2022/08/28 08:02:25;;;;;;;7.60;1.60;;;16.90;99.90;;;;;;5013821;28;20040;-66
2022/08/28 08:04:51;;;;;;;8.68;1.88;;;16.90;99.90;;;;;;5011509;28;20065;-66
2022/08/28 08:07:16;;;;;;;8.18;1.58;;;16.90;99.90;;;;;;5013100;28;20132;-66
2022/08/28 08:09:43;;;;;;;4.28;1.60;;;17.00;99.90;;;;;;5012853;28;20104;-66
2022/08/28 08:12:10;;;;;;;10.05;2.20;;;17.10;99.90;;;;;;5013229;28;20050;-66
2022/08/28 08:14:40;;;;;;;6.63;1.67;;;17.20;99.90;;;;;;5011360;28;20050;-66
2022/08/28 08:17:07;;;;;;;8.60;1.77;;;17.40;99.90;;;;;;5012895;28;20392;-66
2022/08/28 08:19:33;;;;;;;10.80;1.90;;;17.40;99.90;;;;;;5012869;28;20038;-66
2022/08/28 08:21:59;;;;;;;6.47;1.70;;;17.40;99.90;;;;;;5011521;28;20117;-66
2022/08/28 08:24:27;;;;;;;8.60;1.83;;;17.40;99.90;;;;;;5012498;28;20192;-66
2022/08/28 08:26:55;;;;;;;5.25;1.55;;;17.50;99.90;;;;;;5027374;28;20053;-66
2022/08/28 08:29:20;;;;;;;6.65;1.80;;;17.40;99.90;;;;;;5031189;28;20073;-66
2022/08/28 08:31:54;;;;;;;6.78;1.65;;;17.50;99.90;;;;;;5032133;28;20832;-66
2022/08/28 08:34:20;;;;;;;8.45;1.52;;;17.40;99.90;;;;;;5030541;28;20076;-66
2022/08/28 08:36:45;;;;;;;7.25;1.55;;;17.50;99.90;;;;;;5032235;28;20475;-66
2022/08/28 08:39:11;;;;;;;4.75;1.60;;;17.50;99.90;;;;;;5030990;28;20679;-66
2022/08/28 08:41:46;;;;;;;15.77;2.00;;;17.70;99.90;;;;;;5032171;28;20160;-66
2022/08/28 08:44:27;;;;;;;9.52;1.50;;;17.60;99.90;;;;;;5030450;28;20124;-66
2022/08/28 08:47:07;;;;;;;10.52;1.60;;;17.70;99.90;;;;;;5030907;28;20147;-65
2022/08/28 08:49:40;;;;;;;6.38;1.77;;;17.80;99.90;;;;;;5013096;28;20433;-67
2022/08/28 08:52:14;;;;;;;13.93;2.10;;;17.90;99.90;;;;;;5012374;28;20389;-67
2022/08/28 08:54:42;;;;;;;7.78;2.08;;;18.00;99.90;;;;;;5011965;28;20126;-67
2022/08/28 08:57:11;;;;;;;8.48;1.80;;;18.10;99.90;;;;;;5012210;28;20040;-67
2022/08/28 08:59:38;;;;;;;4.63;1.63;;;18.20;99.90;;;;;;5010898;28;20037;-67
2022/08/28 09:02:33;;;;;;;10.05;1.55;;;18.30;99.90;;;;;;5012251;28;20034;-68
2022/08/28 09:05:10;;;;;;;3.85;1.48;;;18.40;99.90;;;;;;5009687;28;20058;-67
2022/08/28 09:07:46;;;;;;;7.47;1.95;;;18.40;99.90;;;;;;5010916;28;20458;-67
2022/08/28 09:10:14;;;;;;;5.75;1.48;;;18.40;99.90;;;;;;5011771;28;20061;-67
2022/08/28 09:13:17;;;;;;;8.02;1.52;;;18.50;99.90;;;;;;5010509;28;20518;-66
2022/08/28 09:15:45;;;;;;;8.77;2.08;;;18.60;99.90;;;;;;5016967;28;20515;-67
2022/08/28 09:18:23;;;;;;;7.85;1.60;;;18.70;99.90;;;;;;5030117;28;20487;-66
2022/08/28 09:20:51;;;;;;;7.32;1.60;;;18.70;99.90;;;;;;5013721;28;20041;-66
2022/08/28 09:23:17;;;;;;;6.85;1.50;;;18.90;99.90;;;;;;5029949;28;20196;-66
2022/08/28 09:25:50;;;;;;;5.15;1.80;;;18.80;99.90;;;;;;5030943;28;20516;-66
2022/08/28 09:28:33;;;;;;;3.92;1.30;;;18.90;99.90;;;;;;5029964;28;20503;-66
2022/08/28 09:31:12;;;;;;;6.13;1.75;;;18.90;99.90;;;;;;5031079;28;20045;-66
2022/08/28 09:33:44;;;;;;;6.35;1.60;;;18.80;99.90;;;;;;5030010;28;20037;-66
2022/08/28 09:36:28;;;;;;;6.80;1.90;;;18.90;99.90;;;;;;5031423;28;20044;-67
2022/08/28 09:39:14;;;;;;;9.50;1.55;;;19.00;99.90;;;;;;5031026;28;20120;-66
2022/08/28 09:44:55;;;;;;;4.25;1.48;;;19.10;99.90;;;;;;5030779;28;20081;-66
2022/08/28 09:47:39;;;;;;;5.43;1.52;;;19.10;99.90;;;;;;5029567;28;20041;-67
2022/08/28 09:50:26;;;;;;;6.75;2.08;;;19.20;99.90;;;;;;5029705;28;20757;-67
2022/08/28 09:52:54;;;;;;;4.70;1.50;;;19.10;99.90;;;;;;5029922;28;20406;-67
2022/08/28 09:55:24;;;;;;;6.07;1.85;;;19.10;99.90;;;;;;5029392;28;20490;-66
2022/08/28 09:57:53;;;;;;;7.40;1.60;;;19.20;99.90;;;;;;5029021;28;20121;-65
2022/08/28 10:00:19;;;;;;;10.82;1.73;;;19.30;99.90;;;;;;5028621;28;20038;-66
2022/08/28 10:02:59;;;;;;;6.88;1.90;;;19.50;99.90;;;;;;5031020;28;20113;-65
2022/08/28 10:05:37;;;;;;;10.45;1.45;;;19.40;99.90;;;;;;5030589;28;20056;-66
2022/08/28 10:08:24;;;;;;;4.88;1.67;;;19.40;99.90;;;;;;5030779;28;20132;-66
2022/08/28 10:10:54;;;;;;;5.90;1.48;;;19.40;99.90;;;;;;5031067;28;20047;-66
2022/08/28 10:13:30;;;;;;;5.72;1.55;;;19.30;99.90;;;;;;5030684;28;20050;-66
2022/08/28 10:16:08;;;;;;;4.72;1.52;;;19.30;99.90;;;;;;5029081;28;20065;-66
2022/08/28 10:18:42;;;;;;;4.45;1.58;;;19.30;99.90;;;;;;5029471;28;20044;-66
2022/08/28 10:21:25;;;;;;;8.00;2.30;;;19.50;99.90;;;;;;5030665;28;20049;-66
2022/08/28 10:24:24;;;;;;;4.05;1.70;;;19.50;99.90;;;;;;5029436;28;20041;-67
2022/08/28 10:26:58;;;;;;;5.90;1.55;;;19.60;99.90;;;;;;5029727;28;20427;-67
2022/08/28 10:29:50;;;;;;;10.52;2.10;;;19.70;99.90;;;;;;5030533;28;20065;-67
2022/08/28 10:32:25;;;;;;;6.72;2.00;;;19.80;99.90;;;;;;5029378;28;20575;-67
2022/08/28 10:35:01;;;;;;;6.40;1.80;;;19.90;99.90;;;;;;5029074;28;20625;-67
2022/08/28 10:37:43;;;;;;;7.93;2.13;;;20.00;99.90;;;;;;5030449;28;20040;-67
2022/08/28 10:40:15;;;;;;;;;;;19.70;99.90;;;;;;5030017;28;20454;-66
2022/08/28 10:43:00;;;;;;;4.47;2.25;;;19.60;99.90;;;;;;5030613;28;20294;-67
2022/08/28 10:45:29;;;;;;;6.25;1.75;;;19.40;99.90;;;;;;5030253;28;20045;-67
2022/08/28 10:48:00;;;;;;;2.67;1.60;;;19.40;99.90;;;;;;5030276;28;20483;-67
2022/08/28 10:50:31;;;;;;;8.25;2.00;;;19.50;99.90;;;;;;5030644;28;20124;-67
2022/08/28 10:53:04;;;;;;;5.65;1.80;;;19.70;99.90;;;;;;5030531;28;20049;-67
2022/08/28 10:55:37;;;;;;;4.88;1.65;;;19.90;99.90;;;;;;5030066;28;20046;-67
2022/08/28 10:58:09;;;;;;;7.65;2.25;;;20.00;99.90;;;;;;5030418;28;20053;-66
2022/08/28 11:00:36;;;;;;;6.82;2.25;;;20.00;99.90;;;;;;5027854;28;20063;-67
2022/08/28 11:03:09;;;;;;;6.40;1.83;;;20.00;99.90;;;;;;5021581;28;20688;-66
2022/08/28 11:06:04;;;;;;;8.30;2.00;;;20.00;99.90;;;;;;5030886;28;20049;-65
2022/08/28 11:08:35;;;;;;;5.95;2.00;;;19.90;99.90;;;;;;5029372;28;20073;-66
2022/08/28 11:11:05;;;;;;;5.65;1.60;;;19.90;99.90;;;;;;5033477;28;20037;-66
2022/08/28 11:13:42;;;;;;;6.65;1.95;;;19.90;99.90;;;;;;5034624;28;20103;-66
2022/08/28 11:16:31;;;;;;;5.07;2.25;;;20.00;99.90;;;;;;5034376;28;20047;-66
2022/08/28 11:19:10;;;;;;;6.25;1.70;;;20.10;99.30;;;;;;5027613;28;20084;-66
2022/08/28 11:21:50;;;;;;;5.35;1.83;;;20.10;99.90;;;;;;5035232;28;20041;-66
2022/08/28 11:24:50;;;;;;;9.85;1.80;;;20.20;99.90;;;;;;5034540;28;20135;-66
2022/08/28 11:27:32;;;;;;;4.80;1.33;;;20.30;99.40;;;;;;5033252;28;20045;-66
2022/08/28 11:30:15;;;;;;;4.70;1.93;;;20.10;98.70;;;;;;5033266;28;20049;-66
2022/08/28 11:32:47;;;;;;;5.38;1.90;;;20.10;99.50;;;;;;5034562;28;20053;-66
2022/08/28 11:35:34;;;;;;;6.43;1.70;;;20.00;99.90;;;;;;5034047;28;20045;-65
2022/08/28 11:38:00;;;;;;;4.35;1.67;;;20.10;99.90;;;;;;5033111;28;20041;-66
2022/08/28 11:40:28;;;;;;;5.88;1.50;;;20.20;99.90;;;;;;5034485;28;20034;-66
2022/08/28 11:43:29;;;;;;;3.92;1.60;;;20.30;99.90;;;;;;5034236;28;20033;-66
2022/08/28 11:45:54;;;;;;;4.95;1.80;;;20.40;99.50;;;;;;5033901;28;20045;-66
2022/08/28 11:48:35;;;;;;;7.50;1.67;;;20.40;99.90;;;;;;5034047;28;20048;-66
2022/08/28 11:51:16;;;;;;;6.63;1.80;;;20.40;99.40;;;;;;5032727;28;20053;-66
2022/08/28 11:53:47;;;;;;;8.70;1.77;;;20.30;98.50;;;;;;5033920;28;20064;-66
2022/08/28 11:56:53;;;;;;;5.72;2.05;;;20.10;97.80;;;;;;5034039;28;20041;-65
2022/08/28 11:59:33;;;;;;;6.22;1.67;;;20.20;99.00;;;;;;5017231;28;20108;-66
2022/08/28 12:02:37;;;;;;;8.02;1.88;;;20.30;99.80;;;;;;5033935;28;20091;-66
2022/08/28 12:05:06;;;;;;;9.90;1.88;;;20.50;99.90;;;;;;5033428;28;20511;-66
2022/08/28 12:07:34;;;;;;;10.90;2.10;;;20.50;99.40;;;;;;5033786;28;20045;-66
2022/08/28 12:10:00;;;;;;;4.75;2.00;;;20.60;99.90;;;;;;5033641;28;20038;-66
2022/08/28 12:12:44;;;;;;;8.23;2.05;;;20.70;99.70;;;;;;5010582;28;20073;-66
2022/08/28 12:15:30;;;;;;;5.63;2.15;;;20.60;98.90;;;;;;5013499;28;20128;-66
2022/08/28 12:18:09;;;;;;;5.90;1.90;;;20.40;98.70;;;;;;5012423;28;20121;-66
2022/08/28 12:20:49;;;;;;;8.27;2.20;;;20.50;99.40;;;;;;5013591;28;20065;-67
2022/08/28 12:23:35;;;;;;;5.60;1.80;;;20.30;98.90;;;;;;5013667;28;20048;-67
2022/08/28 12:26:25;;;;;;;8.88;2.10;;;20.50;99.10;;;;;;5013331;28;20064;-66
2022/08/28 12:29:01;;;;;;;10.35;1.80;;;20.60;98.40;;;;;;5012632;28;20053;-67
2022/08/28 12:35:14;;;;;;;3.60;1.65;;;20.40;98.10;;;;;;5013387;28;20049;-66
2022/08/28 12:37:48;;;;;;;6.45;1.67;;;20.60;98.00;;;;;;5013462;28;20073;-67
2022/08/28 12:40:18;;;;;;;4.68;1.60;;;20.50;98.30;;;;;;5013369;28;20041;-67
2022/08/28 12:42:46;;;;;;;7.93;2.20;;;20.70;98.80;;;;;;5012226;28;20399;-66
2022/08/28 12:45:24;;;;;;;5.22;1.67;;;20.80;98.40;;;;;;5013209;28;20129;-67
2022/08/28 12:47:52;;;;;;;4.13;1.60;;;20.70;98.00;;;;;;5013290;28;20665;-66
2022/08/28 12:50:24;;;;;;;5.45;1.70;;;20.70;98.30;;;;;;5011963;28;20132;-66
2022/08/28 12:52:56;;;;;;;6.07;1.98;;;20.70;97.30;;;;;;5011818;28;20068;-66
2022/08/28 12:55:23;;;;;;;4.90;1.67;;;20.80;97.70;;;;;;5013016;28;20038;-66
2022/08/28 12:57:49;;;;;;;5.13;1.60;;;20.90;97.40;;;;;;5013238;28;20084;-67
2022/08/28 13:00:19;;;;;;;4.22;1.60;;;20.90;97.70;;;;;;5013024;28;20546;-66
2022/08/28 13:03:22;;;;;;;7.88;1.88;;;20.80;97.50;;;;;;5023510;28;20455;-66
2022/08/28 13:09:29;;;;;;;4.57;1.92;;;21.00;97.40;;;;;;5039386;28;20091;-67
2022/08/28 13:11:55;;;;;;;3.72;1.45;;;21.00;97.10;;;;;;5031162;28;20041;-67
2022/08/28 13:14:40;;;;;;;4.88;2.13;;;20.80;96.60;;;;;;5030638;28;20508;-66
2022/08/28 13:17:06;;;;;;;9.90;1.90;;;20.80;96.10;;;;;;5030609;28;20511;-66